createdAt,value
2023-05-10T00:00:17.625Z,0.80
2023-05-10T00:02:47.276Z,0.80
2023-05-10T00:05:15.253Z,0.70
2023-05-10T00:07:45.834Z,0.60
2023-05-10T00:10:14.405Z,0.80
2023-05-10T00:12:42.599Z,0.70
2023-05-10T00:15:11.474Z,0.80
2023-05-10T00:17:39.444Z,0.80
2023-05-10T00:20:09.875Z,0.73
2023-05-10T00:22:37.819Z,0.73
2023-05-10T00:25:07.199Z,0.52
2023-05-10T00:27:35.168Z,0.52
2023-05-10T00:30:03.271Z,1.08
2023-05-10T00:32:31.610Z,1.10
2023-05-10T00:34:59.592Z,0.70
2023-05-10T00:37:28.929Z,0.88
2023-05-10T00:39:56.878Z,0.98
2023-05-10T00:42:24.764Z,0.95
2023-05-10T00:44:52.838Z,0.60
2023-05-10T00:47:20.952Z,0.80
2023-05-10T00:49:48.970Z,0.90
2023-05-10T00:52:17.028Z,1.73
2023-05-10T00:54:46.571Z,2.05
2023-05-10T00:57:14.530Z,1.35
2023-05-10T00:59:42.550Z,1.05
2023-05-10T01:02:10.826Z,0.93
2023-05-10T01:04:40.451Z,0.80
2023-05-10T01:07:08.804Z,0.70
2023-05-10T01:09:36.980Z,0.60
2023-05-10T01:12:08.032Z,0.77
2023-05-10T01:14:38.301Z,0.80
2023-05-10T01:17:08.133Z,0.57
2023-05-10T01:19:38.694Z,1.05
2023-05-10T01:22:43.374Z,0.73
2023-05-10T01:28:24.123Z,0.70
2023-05-10T01:31:20.681Z,1.00
2023-05-10T01:33:57.035Z,0.70
2023-05-10T01:36:33.294Z,0.60
2023-05-10T01:39:07.590Z,0.60
2023-05-10T01:41:42.954Z,0.60
2023-05-10T01:44:22.684Z,0.80
2023-05-10T01:46:55.621Z,0.75
2023-05-10T01:49:28.542Z,0.95
2023-05-10T01:52:01.769Z,1.10
2023-05-10T01:54:31.257Z,1.20
2023-05-10T01:57:05.248Z,0.90
2023-05-10T01:59:40.295Z,0.60
2023-05-10T02:02:09.292Z,0.85
2023-05-10T02:04:40.708Z,0.95
2023-05-10T02:07:09.457Z,0.80
2023-05-10T02:09:39.143Z,0.93
2023-05-10T02:12:09.463Z,0.93
2023-05-10T02:14:39.157Z,0.90
2023-05-10T02:17:09.904Z,1.10
2023-05-10T02:19:42.767Z,1.17
2023-05-10T02:22:11.976Z,1.10
2023-05-10T02:24:42.007Z,1.02
2023-05-10T02:27:11.939Z,0.90
2023-05-10T02:29:41.080Z,1.05
2023-05-10T02:32:12.098Z,1.00
2023-05-10T02:34:43.151Z,1.13
2023-05-10T02:37:11.898Z,1.05
2023-05-10T02:39:44.747Z,0.90
2023-05-10T02:42:18.078Z,1.37
2023-05-10T02:44:50.078Z,1.30
2023-05-10T02:47:18.222Z,0.80
2023-05-10T02:49:48.172Z,1.00
2023-05-10T02:52:21.633Z,0.85
2023-05-10T02:54:54.515Z,1.08
2023-05-10T02:57:36.115Z,0.97
2023-05-10T03:00:04.767Z,0.90
2023-05-10T03:02:33.033Z,1.20
2023-05-10T03:05:02.590Z,1.20
2023-05-10T03:07:30.952Z,1.38
2023-05-10T03:09:59.085Z,1.27
2023-05-10T03:12:42.594Z,0.90
2023-05-10T03:15:16.010Z,1.00
2023-05-10T03:17:58.244Z,1.25
2023-05-10T03:20:31.472Z,1.15
2023-05-10T03:23:06.487Z,1.00
2023-05-10T03:25:35.486Z,0.90
2023-05-10T03:28:06.618Z,1.40
2023-05-10T03:30:35.935Z,0.98
2023-05-10T03:33:07.346Z,0.90
2023-05-10T03:35:36.909Z,1.20
2023-05-10T03:38:04.857Z,1.10
2023-05-10T03:40:33.362Z,0.95
2023-05-10T03:43:01.303Z,1.08
2023-05-10T03:45:29.466Z,1.13
2023-05-10T03:47:57.524Z,0.93
2023-05-10T03:50:25.671Z,0.90
2023-05-10T03:52:55.024Z,1.10
2023-05-10T03:55:23.520Z,1.10
2023-05-10T03:57:51.626Z,0.80
2023-05-10T04:00:19.794Z,1.00
2023-05-10T04:02:47.877Z,0.85
2023-05-10T04:05:15.882Z,0.98
2023-05-10T04:07:45.351Z,1.15
2023-05-10T04:10:15.043Z,1.42
2023-05-10T04:12:43.115Z,1.50
2023-05-10T04:15:11.672Z,1.50
2023-05-10T04:17:39.664Z,1.40
2023-05-10T04:20:09.396Z,1.40
2023-05-10T04:22:37.339Z,1.10
2023-05-10T04:25:05.802Z,1.08
2023-05-10T04:27:35.225Z,1.55
2023-05-10T04:30:04.408Z,1.23
2023-05-10T04:32:32.592Z,0.95
2023-05-10T04:35:00.593Z,1.25
2023-05-10T04:37:28.574Z,1.23
2023-05-10T04:39:56.537Z,1.35
2023-05-10T04:42:24.470Z,1.00
2023-05-10T04:44:54.086Z,1.02
2023-05-10T04:47:22.059Z,1.10
2023-05-10T04:49:50.015Z,0.93
2023-05-10T04:52:18.951Z,1.33
2023-05-10T04:54:46.935Z,1.60
2023-05-10T04:57:14.870Z,1.00
2023-05-10T04:59:43.565Z,1.30
2023-05-10T05:02:12.862Z,1.30
2023-05-10T05:04:40.818Z,1.23
2023-05-10T05:07:08.748Z,1.52
2023-05-10T05:09:36.757Z,1.33
2023-05-10T05:12:05.263Z,1.30
2023-05-10T05:14:33.220Z,1.33
2023-05-10T05:17:01.152Z,0.77
2023-05-10T05:19:30.436Z,1.10
2023-05-10T05:21:58.492Z,1.30
2023-05-10T05:24:26.510Z,0.93
2023-05-10T05:26:54.465Z,1.25
2023-05-10T05:29:22.405Z,0.85
2023-05-10T05:31:50.370Z,0.90
2023-05-10T05:34:18.284Z,1.10
2023-05-10T05:36:47.605Z,1.00
2023-05-10T05:39:15.654Z,1.25
2023-05-10T05:41:43.648Z,1.00
2023-05-10T05:44:11.650Z,0.73
2023-05-10T05:46:39.868Z,0.88
2023-05-10T05:49:07.787Z,1.10
2023-05-10T05:51:36.656Z,0.95
2023-05-10T05:54:05.932Z,0.95
2023-05-10T05:56:33.895Z,0.90
2023-05-10T05:59:01.836Z,1.00
2023-05-10T06:01:29.810Z,1.00
2023-05-10T06:03:57.940Z,0.82
2023-05-10T06:06:26.023Z,1.33
2023-05-10T06:08:53.960Z,1.73
2023-05-10T06:11:23.926Z,1.27
2023-05-10T06:13:52.099Z,0.98
2023-05-10T06:16:19.989Z,1.85
2023-05-10T06:18:47.922Z,1.50
2023-05-10T06:21:15.923Z,1.38
2023-05-10T06:23:43.963Z,1.70
2023-05-10T06:26:12.233Z,1.60
2023-05-10T06:28:41.884Z,1.45
2023-05-10T06:31:09.839Z,1.20
2023-05-10T06:33:37.770Z,1.35
2023-05-10T06:36:06.108Z,1.88
2023-05-10T06:38:34.403Z,1.52
2023-05-10T06:41:02.564Z,1.70
2023-05-10T06:43:30.768Z,1.65
2023-05-10T06:46:00.176Z,1.65
2023-05-10T06:48:28.163Z,1.80
2023-05-10T06:50:56.097Z,1.85
2023-05-10T06:53:23.998Z,1.35
2023-05-10T06:55:52.416Z,3.05
2023-05-10T06:58:20.309Z,1.80
2023-05-10T07:00:48.398Z,1.63
2023-05-10T07:03:18.095Z,1.33
2023-05-10T07:05:46.041Z,1.35
2023-05-10T07:08:14.463Z,1.60
2023-05-10T07:10:42.422Z,1.25
2023-05-10T07:13:10.932Z,1.52
2023-05-10T07:15:38.930Z,1.40
2023-05-10T07:18:07.646Z,1.65
2023-05-10T07:20:37.140Z,2.25
2023-05-10T07:23:05.094Z,1.50
2023-05-10T07:25:33.107Z,1.40
2023-05-10T07:28:01.042Z,1.33
2023-05-10T07:30:29.133Z,1.65
2023-05-10T07:32:57.135Z,1.60
2023-05-10T07:35:25.137Z,1.48
2023-05-10T07:37:54.470Z,1.48
2023-05-10T07:40:22.640Z,1.42
2023-05-10T07:42:50.614Z,1.48
2023-05-10T07:45:18.832Z,1.25
2023-05-10T07:47:46.857Z,1.30
2023-05-10T07:50:15.139Z,1.17
2023-05-10T07:52:43.331Z,1.23
2023-05-10T07:55:13.250Z,2.65
2023-05-10T07:57:41.384Z,1.48
2023-05-10T08:00:10.567Z,1.85
2023-05-10T08:02:38.634Z,1.40
2023-05-10T08:05:07.578Z,1.45
2023-05-10T08:07:35.633Z,1.05
2023-05-10T08:10:03.621Z,1.55
2023-05-10T08:12:32.987Z,1.17
2023-05-10T08:15:01.087Z,1.30
2023-05-10T08:17:29.064Z,1.63
2023-05-10T08:19:57.107Z,1.45
2023-05-10T08:22:25.012Z,1.17
2023-05-10T08:24:52.964Z,1.40
2023-05-10T08:27:20.898Z,1.30
2023-05-10T08:29:50.757Z,1.45
2023-05-10T08:32:18.918Z,1.42
2023-05-10T08:34:46.862Z,1.80
2023-05-10T08:37:14.854Z,1.75
2023-05-10T08:39:42.773Z,1.65
2023-05-10T08:42:11.695Z,1.58
2023-05-10T08:44:39.712Z,1.25
2023-05-10T08:47:10.692Z,1.80
2023-05-10T08:49:39.779Z,1.15
2023-05-10T08:52:09.342Z,1.35
2023-05-10T08:54:37.583Z,1.10
2023-05-10T08:57:05.936Z,1.20
2023-05-10T08:59:34.259Z,1.10
2023-05-10T09:02:04.298Z,0.75
2023-05-10T09:04:33.884Z,0.82
2023-05-10T09:07:02.250Z,1.23
2023-05-10T09:09:30.913Z,1.00
2023-05-10T09:11:59.093Z,0.75
2023-05-10T09:14:27.529Z,0.68
2023-05-10T09:16:56.686Z,1.23
2023-05-10T09:19:24.697Z,1.02
2023-05-10T09:21:54.046Z,1.30
2023-05-10T09:24:27.104Z,1.20
2023-05-10T09:26:55.086Z,1.13
2023-05-10T09:29:23.037Z,1.00
2023-05-10T09:31:53.463Z,0.93
2023-05-10T09:34:23.018Z,0.70
2023-05-10T09:36:57.335Z,1.40
2023-05-10T09:39:33.805Z,1.10
2023-05-10T09:42:04.798Z,0.80
2023-05-10T09:44:33.421Z,0.90
2023-05-10T09:47:01.466Z,1.80
2023-05-10T09:49:29.644Z,0.73
2023-05-10T09:52:09.176Z,0.90
2023-05-10T09:54:37.420Z,1.00
2023-05-10T09:57:06.086Z,0.52
2023-05-10T09:59:36.325Z,0.75
2023-05-10T10:02:04.908Z,1.08
2023-05-10T10:04:33.196Z,1.27
2023-05-10T10:07:02.766Z,1.17
2023-05-10T10:09:32.718Z,0.93
2023-05-10T10:12:01.638Z,0.90
2023-05-10T10:14:30.573Z,0.93
2023-05-10T10:19:30.276Z,0.73
2023-05-10T10:21:58.298Z,0.82
2023-05-10T10:24:26.308Z,0.70
2023-05-10T10:27:00.649Z,1.00
2023-05-10T10:29:38.467Z,1.08
2023-05-10T10:32:14.303Z,1.30
2023-05-10T10:34:42.749Z,0.85
2023-05-10T10:37:10.749Z,1.05
2023-05-10T10:39:38.711Z,0.95
2023-05-10T10:42:08.084Z,1.10
2023-05-10T10:44:39.260Z,1.17
2023-05-10T10:47:30.875Z,0.60
2023-05-10T10:50:06.362Z,0.73
2023-05-10T10:52:35.895Z,1.67
2023-05-10T10:55:07.709Z,1.05
2023-05-10T10:57:46.579Z,1.10
2023-05-10T11:00:25.780Z,1.00
2023-05-10T11:02:55.742Z,1.20
2023-05-10T11:05:38.668Z,1.77
2023-05-10T11:08:13.195Z,1.05
2023-05-10T11:10:42.165Z,1.20
2023-05-10T11:13:12.313Z,1.60
2023-05-10T11:15:41.346Z,1.30
2023-05-10T11:18:23.565Z,1.42
2023-05-10T11:20:53.505Z,1.08
2023-05-10T11:23:22.200Z,1.13
2023-05-10T11:25:51.392Z,1.00
2023-05-10T11:28:21.411Z,1.40
2023-05-10T11:30:49.597Z,1.10
2023-05-10T11:33:20.527Z,0.65
2023-05-10T11:35:49.000Z,0.70
2023-05-10T11:38:17.050Z,0.50
2023-05-10T11:40:45.700Z,0.57
2023-05-10T11:43:13.703Z,0.77
2023-05-10T11:45:43.795Z,0.30
2023-05-10T11:48:11.798Z,0.75
2023-05-10T11:50:39.891Z,0.85
2023-05-10T11:53:07.806Z,0.55
2023-05-10T11:55:36.291Z,0.73
2023-05-10T11:58:04.843Z,0.88
2023-05-10T12:00:33.687Z,0.70
2023-05-10T12:03:04.287Z,1.02
2023-05-10T12:05:37.930Z,1.08
2023-05-10T12:10:43.438Z,0.70
2023-05-10T12:13:16.422Z,1.02
2023-05-10T12:15:45.091Z,0.85
2023-05-10T12:18:15.309Z,0.60
2023-05-10T12:20:43.568Z,0.93
2023-05-10T12:23:12.183Z,0.52
2023-05-10T12:25:40.872Z,0.75
2023-05-10T12:28:10.801Z,0.65
2023-05-10T12:30:39.821Z,1.08
2023-05-10T12:33:11.209Z,0.75
2023-05-10T12:35:51.235Z,0.85
2023-05-10T12:38:30.645Z,0.55
2023-05-10T12:41:00.340Z,0.40
2023-05-10T12:43:28.768Z,0.47
2023-05-10T12:45:56.869Z,0.85
2023-05-10T12:48:24.999Z,0.93
2023-05-10T12:50:54.354Z,0.35
2023-05-10T12:53:22.429Z,0.60
2023-05-10T12:55:50.469Z,0.55
2023-05-10T12:58:34.357Z,0.80
2023-05-10T13:01:03.990Z,0.50
2023-05-10T13:03:32.178Z,0.73
2023-05-10T13:06:01.496Z,0.17
2023-05-10T13:08:34.479Z,0.40
2023-05-10T13:11:02.903Z,0.60
2023-05-10T13:13:31.021Z,0.40
2023-05-10T13:15:59.002Z,0.40
2023-05-10T13:18:27.681Z,0.52
2023-05-10T13:20:56.803Z,0.68
2023-05-10T13:23:26.158Z,0.25
2023-05-10T13:25:54.125Z,0.35
2023-05-10T13:28:22.131Z,0.47
2023-05-10T13:30:50.102Z,0.50
2023-05-10T13:33:18.105Z,0.55
2023-05-10T13:35:46.323Z,0.35
2023-05-10T13:38:14.845Z,0.40
2023-05-10T13:40:44.273Z,0.38
2023-05-10T13:43:12.206Z,0.10
2023-05-10T13:45:40.152Z,0.35
2023-05-10T13:48:08.154Z,0.32
2023-05-10T13:50:36.179Z,0.30
2023-05-10T13:53:04.130Z,0.20
2023-05-10T13:55:32.098Z,0.30
2023-05-10T13:58:01.452Z,0.30
2023-05-10T14:00:29.457Z,0.50
2023-05-10T14:02:57.610Z,0.50
2023-05-10T14:05:26.699Z,0.40
2023-05-10T14:07:54.891Z,0.35
2023-05-10T14:10:22.900Z,0.32
2023-05-10T14:12:51.897Z,0.63
2023-05-10T14:15:21.291Z,0.50
2023-05-10T14:17:49.388Z,0.50
2023-05-10T14:20:17.498Z,1.25
2023-05-10T14:22:45.465Z,0.50
2023-05-10T14:25:13.793Z,0.55
2023-05-10T14:27:41.744Z,0.90
2023-05-10T14:30:10.714Z,0.52
2023-05-10T14:32:40.101Z,0.38
2023-05-10T14:35:10.712Z,0.40
2023-05-10T14:37:40.361Z,0.63
2023-05-10T14:40:10.326Z,0.50
2023-05-10T14:42:38.310Z,0.70
2023-05-10T14:45:07.363Z,0.50
2023-05-10T14:47:35.369Z,0.70
2023-05-10T14:50:04.948Z,0.50
2023-05-10T14:52:34.276Z,0.50
2023-05-10T14:55:02.517Z,0.80
2023-05-10T14:57:33.796Z,0.40
2023-05-10T15:00:03.042Z,0.63
2023-05-10T15:02:31.495Z,2.05
2023-05-10T15:04:59.699Z,0.43
2023-05-10T15:07:29.543Z,0.70
2023-05-10T15:09:57.540Z,0.98
2023-05-10T15:12:25.471Z,0.90
2023-05-10T15:14:53.421Z,0.43
2023-05-10T15:17:21.331Z,0.40
2023-05-10T15:19:50.252Z,0.55
2023-05-10T15:22:18.164Z,0.70
2023-05-10T15:24:47.546Z,0.65
2023-05-10T15:27:15.550Z,0.52
2023-05-10T15:29:43.536Z,0.30
2023-05-10T15:32:11.513Z,0.65
2023-05-10T15:34:39.444Z,0.60
2023-05-10T15:37:07.413Z,0.43
2023-05-10T15:39:35.330Z,0.70
2023-05-10T15:42:05.113Z,0.43
2023-05-10T15:44:34.624Z,0.63
2023-05-10T15:47:02.745Z,0.50
2023-05-10T15:49:30.774Z,1.20
2023-05-10T15:51:58.745Z,0.60
2023-05-10T15:54:26.906Z,0.82
2023-05-10T15:56:55.296Z,1.05
2023-05-10T15:59:24.646Z,0.52
2023-05-10T16:01:53.013Z,0.50
2023-05-10T16:04:21.088Z,0.65
2023-05-10T16:06:49.048Z,0.60
2023-05-10T16:09:17.189Z,0.70
2023-05-10T16:11:46.450Z,0.40
2023-05-10T16:14:14.475Z,0.85
2023-05-10T16:16:44.430Z,0.77
2023-05-10T16:19:12.364Z,0.63
2023-05-10T16:21:40.318Z,0.30
2023-05-10T16:24:08.511Z,0.30
2023-05-10T16:26:40.993Z,0.20
2023-05-10T16:29:09.319Z,0.32
2023-05-10T16:31:37.377Z,0.50
2023-05-10T16:34:06.804Z,0.28
2023-05-10T16:36:35.326Z,0.30
2023-05-10T16:39:03.978Z,0.30
2023-05-10T16:41:34.499Z,0.25
2023-05-10T16:44:02.473Z,0.50
2023-05-10T16:46:30.494Z,0.50
2023-05-10T16:48:59.870Z,0.50
2023-05-10T16:51:29.395Z,0.40
2023-05-10T16:53:57.369Z,0.38
2023-05-10T16:56:25.387Z,0.38
2023-05-10T16:58:54.095Z,0.40
2023-05-10T17:01:24.305Z,0.30
2023-05-10T17:03:53.769Z,0.40
2023-05-10T17:06:21.948Z,0.43
2023-05-10T17:08:51.788Z,0.38
2023-05-10T17:11:21.955Z,0.20
2023-05-10T17:13:49.934Z,0.45
2023-05-10T17:16:17.988Z,0.20
2023-05-10T17:18:46.642Z,0.40
2023-05-10T17:21:14.597Z,0.10
2023-05-10T17:23:42.560Z,0.30
2023-05-10T17:26:11.939Z,0.30
2023-05-10T17:28:39.931Z,0.00
2023-05-10T17:31:08.361Z,0.20
2023-05-10T17:33:36.308Z,0.30
2023-05-10T17:36:04.279Z,0.20
2023-05-10T17:38:32.325Z,0.30
2023-05-10T17:41:00.246Z,0.30
2023-05-10T17:43:29.616Z,0.40
2023-05-10T17:45:57.561Z,0.30
2023-05-10T17:48:25.573Z,0.32
2023-05-10T17:50:53.567Z,0.38
2023-05-10T17:53:21.563Z,0.30
2023-05-10T17:55:49.748Z,1.00
2023-05-10T17:58:17.719Z,0.70
2023-05-10T18:00:47.717Z,0.55
2023-05-10T18:03:15.705Z,0.40
2023-05-10T18:05:43.778Z,0.35
2023-05-10T18:08:11.759Z,0.10
2023-05-10T18:10:41.315Z,0.22
2023-05-10T18:13:09.640Z,0.22
2023-05-10T18:15:37.663Z,0.25
2023-05-10T18:18:07.235Z,0.00
2023-05-10T18:20:35.186Z,0.32
2023-05-10T18:23:03.190Z,0.10
2023-05-10T18:25:31.237Z,0.20
2023-05-10T18:27:59.178Z,0.17
2023-05-10T18:30:27.173Z,0.30
2023-05-10T18:32:55.395Z,0.40
2023-05-10T18:35:24.764Z,0.28
2023-05-10T18:37:53.219Z,0.40
2023-05-10T18:40:21.289Z,0.40
2023-05-10T18:42:50.229Z,0.60
2023-05-10T18:45:18.488Z,0.40
2023-05-10T18:47:46.766Z,0.65
2023-05-10T18:50:17.073Z,0.82
2023-05-10T18:52:46.646Z,0.35
2023-05-10T18:55:14.836Z,0.32
2023-05-10T18:57:43.000Z,0.20
2023-05-10T19:00:12.800Z,0.20
2023-05-10T19:02:41.311Z,0.60
2023-05-10T19:05:10.305Z,0.65
2023-05-10T19:07:38.408Z,0.60
2023-05-10T19:10:08.838Z,0.65
2023-05-10T19:12:37.575Z,0.50
2023-05-10T19:15:06.313Z,0.50
2023-05-10T19:17:35.382Z,0.50
2023-05-10T19:20:04.169Z,0.50
2023-05-10T19:22:45.380Z,0.30
2023-05-10T19:25:21.503Z,0.50
2023-05-10T19:27:49.543Z,0.47
2023-05-10T19:30:17.490Z,0.50
2023-05-10T19:32:45.519Z,0.50
2023-05-10T19:35:15.070Z,0.77
2023-05-10T19:37:46.069Z,0.68
2023-05-10T19:40:15.681Z,0.50
2023-05-10T19:42:45.117Z,0.93
2023-05-10T19:45:15.806Z,0.40
2023-05-10T19:47:44.273Z,0.40
2023-05-10T19:50:13.931Z,0.38
2023-05-10T19:52:41.948Z,0.70
2023-05-10T19:55:10.167Z,0.52
2023-05-10T19:57:38.191Z,0.40
2023-05-10T20:00:09.024Z,0.60
2023-05-10T20:02:37.005Z,0.32
2023-05-10T20:05:05.273Z,0.47
2023-05-10T20:07:33.220Z,0.25
2023-05-10T20:10:01.235Z,0.50
2023-05-10T20:12:29.213Z,0.50
2023-05-10T20:14:57.261Z,0.38
2023-05-10T20:17:26.816Z,0.77
2023-05-10T20:19:54.869Z,0.55
2023-05-10T20:22:22.785Z,0.40
2023-05-10T20:24:50.780Z,0.50
2023-05-10T20:27:21.089Z,0.40
2023-05-10T20:29:49.070Z,0.50
2023-05-10T20:32:17.055Z,0.40
2023-05-10T20:34:46.666Z,0.52
2023-05-10T20:37:14.636Z,0.57
2023-05-10T20:39:42.619Z,0.60
2023-05-10T20:42:10.964Z,0.65
2023-05-10T20:44:38.930Z,0.50
2023-05-10T20:47:07.094Z,0.80
2023-05-10T20:49:36.533Z,0.50
2023-05-10T20:52:06.469Z,0.60
2023-05-10T20:54:34.466Z,0.40
2023-05-10T20:57:02.879Z,0.50
2023-05-10T20:59:30.858Z,0.60
2023-05-10T21:01:59.799Z,0.35
2023-05-10T21:04:28.621Z,0.40
2023-05-10T21:06:57.393Z,0.40
2023-05-10T21:09:27.532Z,0.45
2023-05-10T21:11:56.266Z,1.13
2023-05-10T21:14:24.973Z,1.00
2023-05-10T21:16:54.795Z,0.93
2023-05-10T21:19:23.449Z,0.70
2023-05-10T21:21:52.446Z,0.80
2023-05-10T21:24:21.154Z,0.73
2023-05-10T21:26:51.354Z,0.47
2023-05-10T21:29:20.210Z,0.63
2023-05-10T21:31:49.072Z,0.90
2023-05-10T21:34:18.370Z,0.40
2023-05-10T21:36:48.746Z,0.90
2023-05-10T21:39:17.404Z,1.00
2023-05-10T21:41:46.094Z,0.90
2023-05-10T21:44:16.350Z,0.65
2023-05-10T21:46:45.600Z,0.70
2023-05-10T21:49:14.266Z,1.02
2023-05-10T21:51:42.941Z,0.55
2023-05-10T21:54:11.710Z,0.80
2023-05-10T21:56:40.416Z,1.10
2023-05-10T21:59:09.146Z,1.10
2023-05-10T22:01:39.348Z,0.75
2023-05-10T22:04:08.136Z,0.80
2023-05-10T22:06:36.871Z,0.88
2023-05-10T22:09:05.928Z,1.10
2023-05-10T22:11:34.323Z,0.60
2023-05-10T22:14:02.294Z,0.90
2023-05-10T22:16:30.274Z,0.50
2023-05-10T22:18:59.718Z,0.60
2023-05-10T22:21:27.717Z,0.70
2023-05-10T22:23:55.691Z,1.05
2023-05-10T22:26:23.654Z,0.80
2023-05-10T22:28:51.565Z,0.75
2023-05-10T22:31:20.167Z,0.70
2023-05-10T22:33:49.073Z,1.10
2023-05-10T22:36:19.225Z,1.08
2023-05-10T22:38:47.933Z,0.73
2023-05-10T22:41:16.698Z,0.80
2023-05-10T22:43:45.952Z,0.88
2023-05-10T22:46:14.799Z,0.85
2023-05-10T22:48:44.799Z,0.90
2023-05-10T22:51:13.490Z,0.70
2023-05-10T22:53:43.618Z,0.88
2023-05-10T22:56:12.404Z,0.77
2023-05-10T22:58:41.142Z,0.63
2023-05-10T23:01:10.057Z,0.73
2023-05-10T23:03:39.345Z,0.57
2023-05-10T23:06:08.858Z,0.55
2023-05-10T23:08:38.378Z,0.85
2023-05-10T23:11:09.283Z,0.80
2023-05-10T23:13:38.323Z,0.90
2023-05-10T23:16:08.330Z,1.02
2023-05-10T23:18:37.354Z,0.40
2023-05-10T23:21:06.421Z,1.10
2023-05-10T23:23:37.953Z,0.85
2023-05-10T23:26:11.034Z,0.90
2023-05-10T23:28:40.132Z,0.80
2023-05-10T23:31:09.081Z,0.88
2023-05-10T23:33:37.285Z,0.73
2023-05-10T23:36:05.439Z,0.80
2023-05-10T23:38:33.455Z,0.88
2023-05-10T23:41:01.524Z,0.60
2023-05-10T23:43:31.258Z,0.65
2023-05-10T23:45:59.807Z,0.70
2023-05-10T23:48:27.841Z,0.60
2023-05-10T23:50:55.842Z,0.77
2023-05-10T23:53:23.832Z,1.23
2023-05-10T23:55:51.800Z,0.90
2023-05-10T23:58:19.782Z,0.82
